Time;durP1;ratioP1;P1;durP2;ratioP2;P2;SDS_P1;SDS_P2;PMS_P1;PMS_P2;Temp;Humidity;BMP_temperature;BMP_pressure;BME280_temperature;BME280_humidity;BME280_pressure;Samples;Min_cycle;Max_cycle;Signal;HPM_P1;HPM_P2
2023/12/15 00:01:22;;;;;;;25.17;15.73;;;;;6.60;102237.00;;;;10109955;29;20219;-85
2023/12/15 00:06:23;;;;;;;28.20;16.60;;;;;6.60;102249.00;;;;10121278;29;20235;-84
2023/12/15 00:11:24;;;;;;;28.73;18.30;;;;;6.60;102255.00;;;;10053149;29;20227;-84
2023/12/15 00:16:26;;;;;;;35.27;16.57;;;;;6.70;102246.00;;;;10059102;29;20231;-84
2023/12/15 00:21:27;;;;;;;29.50;17.13;;;;;6.70;102253.00;;;;10047248;29;20869;-84
2023/12/15 00:26:28;;;;;;;27.23;17.97;;;;;6.70;102249.00;;;;10094935;29;20303;-83
2023/12/15 00:31:30;;;;;;;30.83;17.57;;;;;6.70;102257.00;;;;10070482;29;20690;-83
2023/12/15 00:36:31;;;;;;;25.80;17.37;;;;;6.70;102257.00;;;;10054500;29;20235;-84
2023/12/15 00:41:33;;;;;;;31.57;17.37;;;;;6.80;102264.00;;;;10063975;29;20243;-83
2023/12/15 00:46:35;;;;;;;26.93;17.53;;;;;6.80;102258.00;;;;10047566;29;20264;-83
2023/12/15 00:51:36;;;;;;;29.13;18.83;;;;;6.80;102269.00;;;;10057947;29;20642;-84
2023/12/15 00:56:37;;;;;;;32.40;18.83;;;;;6.80;102287.00;;;;10066166;29;20231;-83
2023/12/15 01:01:38;;;;;;;29.33;17.83;;;;;6.80;102295.00;;;;10052786;29;20893;-84
2023/12/15 01:06:39;;;;;;;24.90;17.57;;;;;6.80;102304.00;;;;10065472;29;20262;-84
2023/12/15 01:11:41;;;;;;;32.23;19.20;;;;;6.80;102303.00;;;;10059905;29;20239;-84
2023/12/15 01:16:46;;;;;;;28.53;18.03;;;;;6.80;102304.00;;;;10048019;29;20236;-83
2023/12/15 01:21:47;;;;;;;27.60;18.07;;;;;6.80;102307.00;;;;10060134;29;20239;-83
2023/12/15 01:26:49;;;;;;;34.00;18.83;;;;;6.80;102316.00;;;;10060169;29;20300;-84
2023/12/15 01:31:51;;;;;;;35.80;19.23;;;;;6.80;102312.00;;;;10065705;29;20226;-84
2023/12/15 01:36:52;;;;;;;29.33;18.33;;;;;6.80;102309.00;;;;10074729;29;20231;-85
2023/12/15 01:41:53;;;;;;;27.60;18.33;;;;;6.80;102321.00;;;;10060075;29;20594;-85
2023/12/15 01:46:54;;;;;;;35.27;19.23;;;;;6.90;102317.00;;;;10058724;29;20227;-85
2023/12/15 01:51:55;;;;;;;37.77;19.73;;;;;6.90;102328.00;;;;10074105;29;20286;-85
2023/12/15 01:56:56;;;;;;;35.13;19.33;;;;;6.90;102322.00;;;;10053573;29;20258;-85
2023/12/15 02:01:58;;;;;;;31.33;20.20;;;;;6.90;102336.00;;;;10051387;29;20239;-84
2023/12/15 02:06:59;;;;;;;32.00;20.13;;;;;6.90;102346.00;;;;10065389;29;20232;-85
2023/12/15 02:12:01;;;;;;;34.97;20.67;;;;;6.90;102345.00;;;;10082019;29;20254;-84
2023/12/15 02:17:02;;;;;;;34.80;19.97;;;;;6.90;102351.00;;;;10050731;29;20228;-85
2023/12/15 02:22:03;;;;;;;37.53;21.60;;;;;6.90;102349.00;;;;10067098;29;20235;-85
2023/12/15 02:27:04;;;;;;;39.33;21.77;;;;;7.00;102348.00;;;;10047149;29;20231;-85
2023/12/15 02:32:06;;;;;;;41.10;22.63;;;;;7.00;102356.00;;;;10062429;29;20239;-85
2023/12/15 02:37:07;;;;;;;44.33;23.77;;;;;7.00;102350.00;;;;10067271;29;20833;-85
2023/12/15 02:42:08;;;;;;;45.00;21.93;;;;;7.00;102352.00;;;;10110735;29;20220;-86
2023/12/15 02:47:09;;;;;;;40.20;22.03;;;;;7.00;102371.00;;;;10081352;29;20223;-85
2023/12/15 02:52:11;;;;;;;42.70;22.33;;;;;7.00;102383.00;;;;10046738;29;20232;-84
2023/12/15 02:57:13;;;;;;;38.70;22.30;;;;;7.00;102405.00;;;;10066577;29;20227;-84
2023/12/15 03:02:14;;;;;;;39.10;22.33;;;;;7.00;102405.00;;;;10048690;29;20607;-84
2023/12/15 03:07:15;;;;;;;40.10;22.10;;;;;7.00;102424.00;;;;10056976;29;20254;-84
2023/12/15 03:12:17;;;;;;;41.70;22.10;;;;;7.10;102432.00;;;;10068959;29;20232;-84
2023/12/15 03:17:18;;;;;;;38.40;22.60;;;;;7.10;102433.00;;;;10043529;29;20254;-85
2023/12/15 03:22:20;;;;;;;41.47;24.23;;;;;7.10;102437.00;;;;10070149;29;20259;-83
2023/12/15 03:27:21;;;;;;;47.07;23.43;;;;;7.10;102454.00;;;;10081531;29;20262;-85
2023/12/15 03:32:22;;;;;;;43.57;24.67;;;;;7.10;102458.00;;;;10069977;29;20239;-84
2023/12/15 03:37:23;;;;;;;42.83;24.63;;;;;7.10;102471.00;;;;10059802;29;20800;-83
2023/12/15 03:42:25;;;;;;;52.23;24.20;;;;;7.10;102481.00;;;;10045512;29;20231;-84
2023/12/15 03:47:26;;;;;;;46.47;25.13;;;;;7.20;102491.00;;;;10069232;29;20227;-83
2023/12/15 03:52:27;;;;;;;52.60;27.27;;;;;7.20;102496.00;;;;10075246;29;20238;-83
2023/12/15 03:57:28;;;;;;;43.70;25.20;;;;;7.20;102497.00;;;;10055018;29;20244;-82
2023/12/15 04:02:30;;;;;;;46.10;26.83;;;;;7.20;102499.00;;;;10056232;29;20224;-83
2023/12/15 04:07:31;;;;;;;44.27;27.23;;;;;7.20;102493.00;;;;10073009;29;20219;-83
2023/12/15 04:12:32;;;;;;;44.93;26.60;;;;;7.20;102520.00;;;;10051341;29;20224;-84
2023/12/15 04:17:34;;;;;;;52.07;27.70;;;;;7.30;102523.00;;;;10069066;29;20224;-83
2023/12/15 04:22:36;;;;;;;46.67;26.13;;;;;7.30;102511.00;;;;10050825;29;20266;-83
2023/12/15 04:27:37;;;;;;;54.20;26.93;;;;;7.30;102511.00;;;;10072330;29;20259;-83
2023/12/15 04:32:41;;;;;;;50.97;27.80;;;;;7.30;102522.00;;;;10051572;29;20243;-83
2023/12/15 04:37:45;;;;;;;60.77;28.93;;;;;7.30;102528.00;;;;10068602;29;20240;-84
2023/12/15 04:42:46;;;;;;;55.20;27.93;;;;;7.40;102529.00;;;;10074672;29;20231;-83
2023/12/15 04:47:47;;;;;;;64.97;30.17;;;;;7.40;102531.00;;;;10054535;29;20268;-83
2023/12/15 04:52:49;;;;;;;60.20;29.40;;;;;7.40;102536.00;;;;10072508;29;20804;-83
2023/12/15 04:57:50;;;;;;;59.47;29.20;;;;;7.40;102529.00;;;;10063186;29;20831;-84
2023/12/15 05:02:51;;;;;;;59.83;29.37;;;;;7.30;102538.00;;;;10052364;29;20247;-85
2023/12/15 05:07:53;;;;;;;64.73;30.23;;;;;7.30;102542.00;;;;10053389;29;20246;-84
2023/12/15 05:12:54;;;;;;;62.57;29.07;;;;;7.30;102537.00;;;;10073601;29;20231;-84
2023/12/15 05:17:55;;;;;;;66.67;31.73;;;;;7.20;102547.00;;;;10055448;29;20788;-84
2023/12/15 05:22:56;;;;;;;62.97;31.13;;;;;7.20;102552.00;;;;10106352;29;20295;-85
2023/12/15 05:27:57;;;;;;;67.10;29.70;;;;;7.20;102563.00;;;;10108651;28;20235;-85
2023/12/15 05:32:59;;;;;;;66.57;29.97;;;;;7.20;102565.00;;;;10040791;29;20231;-84
2023/12/15 05:38:02;;;;;;;69.33;30.97;;;;;7.20;102564.00;;;;10059909;29;20933;-84
2023/12/15 05:43:03;;;;;;;71.07;30.70;;;;;7.20;102589.00;;;;10063377;29;20811;-85
2023/12/15 05:48:04;;;;;;;70.53;32.27;;;;;7.20;102591.00;;;;10071242;29;20900;-84
2023/12/15 05:53:06;;;;;;;79.37;34.07;;;;;7.20;102612.00;;;;10062882;29;20259;-84
2023/12/15 05:58:08;;;;;;;66.47;33.70;;;;;7.20;102604.00;;;;10055965;29;20327;-84
2023/12/15 06:03:09;;;;;;;71.80;33.37;;;;;7.20;102603.00;;;;10067751;29;20243;-84
2023/12/15 06:08:11;;;;;;;70.20;31.47;;;;;7.20;102614.00;;;;10054287;29;20231;-83
2023/12/15 06:13:12;;;;;;;71.60;32.17;;;;;7.10;102615.00;;;;10072259;29;20223;-83
2023/12/15 06:18:13;;;;;;;62.57;31.23;;;;;7.10;102603.00;;;;10052690;29;20240;-83
2023/12/15 06:23:15;;;;;;;68.77;31.60;;;;;7.00;102614.00;;;;10088259;29;20235;-83
2023/12/15 06:28:16;;;;;;;84.30;33.03;;;;;7.00;102617.00;;;;10070170;29;20223;-83
2023/12/15 06:33:17;;;;;;;71.13;30.97;;;;;6.90;102617.00;;;;10054761;29;20238;-83
2023/12/15 06:38:19;;;;;;;65.30;28.27;;;;;6.90;102609.00;;;;10042969;29;20224;-83
2023/12/15 06:43:20;;;;;;;65.80;28.37;;;;;6.70;102624.00;;;;10053150;29;20243;-82
2023/12/15 06:48:21;;;;;;;56.83;26.93;;;;;6.70;102629.00;;;;10049553;29;20247;-83
2023/12/15 06:53:22;;;;;;;71.00;29.30;;;;;6.50;102633.00;;;;10069264;29;20230;-83
2023/12/15 06:58:23;;;;;;;66.33;28.50;;;;;6.40;102641.00;;;;10073029;29;20235;-83
2023/12/15 07:03:25;;;;;;;67.77;30.07;;;;;6.40;102644.00;;;;10062425;29;20303;-83
2023/12/15 07:08:26;;;;;;;59.73;28.67;;;;;6.30;102650.00;;;;10073446;29;20238;-83
2023/12/15 07:13:27;;;;;;;70.97;30.73;;;;;6.30;102682.00;;;;10056575;29;20228;-83
2023/12/15 07:18:28;;;;;;;78.90;31.77;;;;;6.40;102703.00;;;;10076609;29;20227;-83
2023/12/15 07:23:30;;;;;;;78.83;33.07;;;;;6.50;102692.00;;;;10072769;29;20296;-83
2023/12/15 07:28:31;;;;;;;85.07;31.73;;;;;6.60;102712.00;;;;10059243;29;20236;-83
2023/12/15 07:33:32;;;;;;;78.83;33.87;;;;;6.70;102706.00;;;;10054213;29;20360;-83
2023/12/15 07:38:33;;;;;;;79.77;34.37;;;;;6.80;102717.00;;;;10054439;29;20235;-83
2023/12/15 07:43:37;;;;;;;91.40;34.17;;;;;6.80;102731.00;;;;10057297;29;20242;-84
2023/12/15 07:48:38;;;;;;;74.43;30.80;;;;;6.90;102707.00;;;;10062220;29;20310;-83
2023/12/15 07:53:40;;;;;;;85.60;31.30;;;;;7.00;102703.00;;;;10056283;29;20243;-83
2023/12/15 07:58:41;;;;;;;72.43;28.80;;;;;7.10;102706.00;;;;10076624;29;20307;-83
2023/12/15 08:03:42;;;;;;;76.33;32.67;;;;;7.20;102722.00;;;;10066781;29;20228;-83
2023/12/15 08:08:46;;;;;;;66.90;31.17;;;;;7.30;102744.00;;;;10100474;29;20275;-83
2023/12/15 08:13:47;;;;;;;72.80;30.00;;;;;7.40;102740.00;;;;10070543;29;20636;-84
2023/12/15 08:18:48;;;;;;;66.43;29.83;;;;;7.50;102743.00;;;;10067693;29;20240;-83
2023/12/15 08:23:50;;;;;;;62.07;27.03;;;;;7.50;102742.00;;;;10054213;29;20262;-83
2023/12/15 08:28:53;;;;;;;65.80;25.13;;;;;7.50;102742.00;;;;10055480;29;20263;-81
2023/12/15 08:33:54;;;;;;;55.63;22.77;;;;;7.50;102772.00;;;;10055189;29;20228;-80
2023/12/15 08:38:56;;;;;;;53.07;24.10;;;;;7.60;102783.00;;;;10050531;29;20979;-80
2023/12/15 08:43:57;;;;;;;58.57;23.70;;;;;7.70;102800.00;;;;10070249;29;20267;-80
2023/12/15 08:48:58;;;;;;;47.93;23.57;;;;;7.70;102805.00;;;;10049223;29;20268;-79
2023/12/15 08:54:00;;;;;;;50.20;22.13;;;;;7.80;102819.00;;;;10091815;29;20222;-81
2023/12/15 08:59:02;;;;;;;49.77;20.80;;;;;7.90;102836.00;;;;10084731;29;20232;-79
2023/12/15 09:04:03;;;;;;;46.67;21.07;;;;;7.90;102830.00;;;;10050154;29;20919;-79
2023/12/15 09:09:04;;;;;;;49.33;21.13;;;;;8.00;102836.00;;;;10065800;29;20243;-80
2023/12/15 09:14:06;;;;;;;40.07;19.17;;;;;8.10;102844.00;;;;10066052;29;20870;-80
2023/12/15 09:19:08;;;;;;;50.80;19.27;;;;;8.20;102837.00;;;;10048885;29;20231;-80
2023/12/15 09:24:09;;;;;;;38.13;17.60;;;;;8.20;102844.00;;;;10054529;29;20262;-80
2023/12/15 09:29:12;;;;;;;37.83;15.57;;;;;8.40;102861.00;;;;10085572;29;20235;-80
2023/12/15 09:34:13;;;;;;;39.27;16.00;;;;;8.60;102859.00;;;;10069257;29;20243;-78
2023/12/15 09:39:15;;;;;;;32.23;15.70;;;;;8.70;102861.00;;;;10076846;29;20302;-81
2023/12/15 09:44:16;;;;;;;35.40;16.60;;;;;9.00;102877.00;;;;10050356;29;20235;-80
2023/12/15 09:49:19;;;;;;;30.57;14.80;;;;;9.20;102881.00;;;;10065216;29;20303;-79
2023/12/15 09:54:21;;;;;;;31.50;13.47;;;;;9.30;102899.00;;;;10062947;29;20885;-82
2023/12/15 09:59:22;;;;;;;31.87;13.97;;;;;9.20;102907.00;;;;10067609;29;20223;-79
2023/12/15 10:04:23;;;;;;;28.43;13.03;;;;;9.10;102926.00;;;;10049296;29;20322;-80
2023/12/15 10:09:24;;;;;;;22.27;10.87;;;;;9.20;102935.00;;;;10062293;29;20306;-81
2023/12/15 10:14:34;;;;;;;22.60;10.30;;;;;9.10;102943.00;;;;10051559;29;20231;-79
2023/12/15 10:19:36;;;;;;;30.13;10.30;;;;;9.10;102967.00;;;;10074395;29;20247;-81
2023/12/15 10:24:37;;;;;;;23.20;8.90;;;;;9.00;102966.00;;;;10067254;29;20235;-81
2023/12/15 10:29:39;;;;;;;24.03;7.37;;;;;9.00;102980.00;;;;10056974;29;20235;-79
2023/12/15 10:34:40;;;;;;;19.47;6.40;;;;;9.20;102991.00;;;;10060515;29;20311;-80
2023/12/15 10:39:42;;;;;;;18.57;6.07;;;;;9.30;103001.00;;;;10088167;29;20307;-79
2023/12/15 10:44:44;;;;;;;23.23;6.23;;;;;9.30;103021.00;;;;10090428;29;20228;-80
2023/12/15 10:49:46;;;;;;;19.63;4.97;;;;;9.40;103017.00;;;;10106861;29;20240;-81
2023/12/15 10:54:59;;;;;;;18.67;5.17;;;;;9.50;103035.00;;;;10073247;29;20366;-82
2023/12/15 11:00:04;;;;;;;23.47;6.00;;;;;9.40;103045.00;;;;10068108;29;20775;-81
2023/12/15 11:05:09;;;;;;;16.43;6.00;;;;;9.40;103059.00;;;;10065258;29;20319;-80
2023/12/15 11:10:12;;;;;;;16.33;4.87;;;;;9.40;103060.00;;;;10067404;29;20238;-82
2023/12/15 11:15:14;;;;;;;13.87;5.47;;;;;9.30;103062.00;;;;10058596;29;20279;-82
2023/12/15 11:20:22;;;;;;;15.47;4.77;;;;;9.30;103051.00;;;;10070839;29;20849;-81
2023/12/15 11:25:30;;;;;;;24.67;5.20;;;;;9.30;103063.00;;;;10063218;29;20228;-81
2023/12/15 11:30:37;;;;;;;18.30;4.93;;;;;9.30;103076.00;;;;10071392;29;20330;-81
2023/12/15 11:35:40;;;;;;;16.90;4.10;;;;;9.30;103079.00;;;;10073832;29;20323;-81
2023/12/15 11:40:42;;;;;;;17.73;5.00;;;;;9.30;103088.00;;;;10074120;29;20239;-82
2023/12/15 11:45:43;;;;;;;11.40;4.43;;;;;9.30;103069.00;;;;10051708;29;20640;-82
2023/12/15 11:50:45;;;;;;;13.77;4.27;;;;;9.40;103044.00;;;;10067173;29;20227;-81
2023/12/15 11:55:51;;;;;;;21.10;5.13;;;;;9.50;103008.00;;;;10071619;29;20319;-81
2023/12/15 12:00:52;;;;;;;15.93;4.07;;;;;9.70;102999.00;;;;10067601;29;20295;-82
2023/12/15 12:05:54;;;;;;;18.37;4.00;;;;;9.80;103008.00;;;;10055983;29;20223;-82
2023/12/15 12:10:58;;;;;;;16.73;4.63;;;;;9.90;103032.00;;;;10088098;29;20284;-81
2023/12/15 12:16:02;;;;;;;19.27;4.97;;;;;9.80;103033.00;;;;10072058;29;20232;-82
2023/12/15 12:21:08;;;;;;;21.70;4.57;;;;;9.80;103050.00;;;;10054408;29;20228;-82
2023/12/15 12:26:09;;;;;;;13.33;4.33;;;;;9.70;103064.00;;;;10087990;29;20238;-81
2023/12/15 12:31:10;;;;;;;21.60;4.67;;;;;9.80;103059.00;;;;10086566;29;20961;-81
2023/12/15 12:36:14;;;;;;;14.40;4.23;;;;;9.80;103063.00;;;;10055505;29;20227;-82
2023/12/15 12:41:16;;;;;;;15.60;4.13;;;;;9.80;103087.00;;;;10058713;29;20244;-81
2023/12/15 12:46:17;;;;;;;15.50;4.03;;;;;9.80;103081.00;;;;10042726;29;20227;-82
2023/12/15 12:51:18;;;;;;;13.53;4.93;;;;;9.80;103084.00;;;;10062560;29;20262;-81
2023/12/15 12:56:21;;;;;;;18.80;4.23;;;;;9.80;103085.00;;;;10070496;29;20228;-82
2023/12/15 13:01:28;;;;;;;13.87;4.00;;;;;9.80;103079.00;;;;10047680;29;20811;-81
2023/12/15 13:06:29;;;;;;;12.13;4.77;;;;;9.80;103077.00;;;;10055277;29;20260;-81
2023/12/15 13:11:30;;;;;;;12.70;3.83;;;;;9.70;103082.00;;;;10051348;29;20223;-81
2023/12/15 13:16:32;;;;;;;9.27;4.23;;;;;9.60;103084.00;;;;10054081;29;20227;-81
2023/12/15 13:21:33;;;;;;;17.80;4.83;;;;;9.50;103083.00;;;;10067237;29;20235;-81
2023/12/15 13:26:35;;;;;;;13.20;4.77;;;;;9.50;103092.00;;;;10118116;29;20215;-82
2023/12/15 13:31:36;;;;;;;19.50;4.10;;;;;9.50;103088.00;;;;10103210;29;20232;-81
2023/12/15 13:36:37;;;;;;;13.67;4.30;;;;;9.40;103079.00;;;;10071124;29;21298;-81
2023/12/15 13:41:39;;;;;;;10.43;3.83;;;;;9.30;103100.00;;;;10054461;29;20232;-82
2023/12/15 13:46:40;;;;;;;16.43;4.50;;;;;9.30;103112.00;;;;10057159;29;20559;-81
2023/12/15 13:51:42;;;;;;;16.17;4.47;;;;;9.20;103101.00;;;;10052394;29;20238;-81
2023/12/15 13:56:43;;;;;;;16.20;4.13;;;;;9.20;103099.00;;;;10075450;29;20236;-81
2023/12/15 14:01:45;;;;;;;11.10;3.87;;;;;9.20;103106.00;;;;10070887;29;20243;-80
2023/12/15 14:06:49;;;;;;;24.17;4.50;;;;;9.10;103096.00;;;;10056187;29;20335;-82
2023/12/15 14:11:50;;;;;;;14.90;4.50;;;;;9.10;103099.00;;;;10046786;29;20870;-81
2023/12/15 14:16:52;;;;;;;12.77;4.13;;;;;9.10;103091.00;;;;10060091;29;20223;-82
2023/12/15 14:21:53;;;;;;;12.10;3.50;;;;;9.00;103107.00;;;;10068528;29;20227;-83
2023/12/15 14:26:54;;;;;;;11.57;3.97;;;;;9.00;103123.00;;;;10060398;29;20223;-83
2023/12/15 14:31:56;;;;;;;14.87;3.97;;;;;9.00;103138.00;;;;10059608;29;20231;-83
2023/12/15 14:36:57;;;;;;;18.07;4.10;;;;;9.00;103155.00;;;;10060008;29;20228;-83
2023/12/15 14:41:58;;;;;;;11.03;4.47;;;;;8.90;103152.00;;;;10087111;29;20815;-84
2023/12/15 14:47:00;;;;;;;13.33;4.63;;;;;8.90;103163.00;;;;10046135;29;20866;-83
2023/12/15 14:52:05;;;;;;;11.50;5.00;;;;;8.80;103157.00;;;;10043051;29;20259;-83
2023/12/15 14:57:06;;;;;;;16.90;5.10;;;;;8.80;103175.00;;;;10070193;29;20235;-83
2023/12/15 15:02:08;;;;;;;14.07;4.00;;;;;8.80;103172.00;;;;10062990;29;20227;-83
2023/12/15 15:07:09;;;;;;;14.03;5.33;;;;;8.70;103146.00;;;;10054192;29;20690;-83
2023/12/15 15:12:10;;;;;;;13.20;4.40;;;;;8.70;103152.00;;;;10064249;29;20702;-82
2023/12/15 15:17:11;;;;;;;9.03;3.90;;;;;8.60;103139.00;;;;10072307;29;20371;-82
2023/12/15 15:22:13;;;;;;;13.37;4.07;;;;;8.60;103157.00;;;;10081329;29;20239;-82
2023/12/15 15:27:14;;;;;;;16.17;4.77;;;;;8.50;103160.00;;;;10056798;29;20236;-79
2023/12/15 15:32:15;;;;;;;11.87;5.33;;;;;8.50;103165.00;;;;10057593;29;20232;-79
2023/12/15 15:37:16;;;;;;;11.97;4.37;;;;;8.40;103165.00;;;;10050320;29;20246;-80
2023/12/15 15:42:18;;;;;;;10.03;4.67;;;;;8.40;103160.00;;;;10065171;29;20947;-80
2023/12/15 15:47:20;;;;;;;15.27;4.70;;;;;8.30;103171.00;;;;10073830;29;20304;-79
2023/12/15 15:52:30;;;;;;;18.40;5.67;;;;;8.30;103183.00;;;;10065790;29;20306;-79
2023/12/15 15:57:32;;;;;;;11.00;4.07;;;;;8.20;103188.00;;;;10059146;29;20278;-79
2023/12/15 16:02:33;;;;;;;12.03;4.27;;;;;8.10;103179.00;;;;10049815;29;20271;-80
2023/12/15 16:07:34;;;;;;;11.13;4.10;;;;;8.10;103192.00;;;;10061328;29;20235;-80
2023/12/15 16:12:36;;;;;;;10.57;4.00;;;;;8.10;103193.00;;;;10080546;29;20239;-80
2023/12/15 16:17:39;;;;;;;14.07;4.60;;;;;8.10;103210.00;;;;10071969;29;20321;-80
2023/12/15 16:22:41;;;;;;;17.53;4.70;;;;;8.10;103212.00;;;;10066805;29;20232;-80
2023/12/15 16:27:42;;;;;;;19.67;5.10;;;;;8.00;103218.00;;;;10065522;29;20234;-80
2023/12/15 16:32:44;;;;;;;15.67;5.13;;;;;8.00;103228.00;;;;10062465;29;20243;-80
2023/12/15 16:37:46;;;;;;;13.73;4.57;;;;;8.00;103236.00;;;;10049600;29;20227;-83
2023/12/15 16:42:48;;;;;;;16.17;4.83;;;;;8.00;103237.00;;;;10051348;29;20279;-83
2023/12/15 16:47:49;;;;;;;12.00;3.90;;;;;8.00;103235.00;;;;10053075;29;20902;-83
2023/12/15 16:52:50;;;;;;;14.87;5.13;;;;;7.90;103230.00;;;;10056741;29;20803;-83
2023/12/15 16:57:54;;;;;;;9.90;4.30;;;;;7.90;103231.00;;;;10050950;29;20244;-82
2023/12/15 17:02:56;;;;;;;13.00;5.00;;;;;8.00;103242.00;;;;10055639;29;20236;-84
2023/12/15 17:07:57;;;;;;;11.97;4.67;;;;;7.90;103239.00;;;;10082293;29;20943;-82
2023/12/15 17:12:58;;;;;;;17.40;5.13;;;;;7.90;103241.00;;;;10080324;29;20226;-84
2023/12/15 17:17:59;;;;;;;14.07;5.27;;;;;8.00;103246.00;;;;10050257;29;20279;-82
2023/12/15 17:23:09;;;;;;;17.70;5.83;;;;;8.00;103255.00;;;;10048396;29;20232;-83
2023/12/15 17:28:11;;;;;;;12.70;5.17;;;;;8.00;103278.00;;;;10050592;29;20231;-83
2023/12/15 17:33:12;;;;;;;16.20;5.70;;;;;8.00;103270.00;;;;10062190;29;20228;-83
2023/12/15 17:38:14;;;;;;;17.63;5.43;;;;;7.90;103273.00;;;;10045656;29;20327;-83
2023/12/15 17:43:17;;;;;;;14.83;5.00;;;;;7.90;103279.00;;;;10044637;29;20244;-82
2023/12/15 17:48:20;;;;;;;20.10;5.60;;;;;8.00;103292.00;;;;10050684;29;20726;-80
2023/12/15 17:53:21;;;;;;;16.23;5.77;;;;;8.00;103301.00;;;;10082574;29;22110;-78
2023/12/15 17:58:22;;;;;;;13.10;5.97;;;;;8.00;103313.00;;;;10073237;29;20223;-80
2023/12/15 18:03:24;;;;;;;15.40;5.53;;;;;8.00;103319.00;;;;10059929;29;20302;-79
2023/12/15 18:08:27;;;;;;;12.83;5.40;;;;;8.00;103329.00;;;;10067835;29;20224;-78
2023/12/15 18:13:30;;;;;;;17.60;5.77;;;;;7.90;103312.00;;;;10080249;29;20231;-80
2023/12/15 18:18:33;;;;;;;15.07;5.73;;;;;7.90;103305.00;;;;10062084;29;20263;-78
2023/12/15 18:23:35;;;;;;;20.27;5.97;;;;;7.90;103310.00;;;;10065700;29;20238;-78
2023/12/15 18:28:36;;;;;;;15.40;5.93;;;;;7.80;103314.00;;;;10099097;29;20282;-79
2023/12/15 18:33:40;;;;;;;17.20;5.23;;;;;7.80;103305.00;;;;10051000;29;20231;-78
2023/12/15 18:38:41;;;;;;;18.77;6.33;;;;;7.80;103326.00;;;;10065720;29;20241;-78
2023/12/15 18:43:45;;;;;;;18.57;6.37;;;;;7.80;103333.00;;;;10048267;29;20235;-80
2023/12/15 18:48:46;;;;;;;16.40;5.30;;;;;7.70;103330.00;;;;10101077;29;20235;-81
2023/12/15 18:53:48;;;;;;;15.40;5.73;;;;;7.80;103340.00;;;;10049226;29;20266;-81
2023/12/15 18:58:50;;;;;;;21.13;6.50;;;;;7.80;103343.00;;;;10073977;29;20314;-80
2023/12/15 19:03:51;;;;;;;16.93;5.70;;;;;7.80;103346.00;;;;10080786;29;20942;-79
2023/12/15 19:08:52;;;;;;;16.50;5.20;;;;;7.80;103326.00;;;;10061156;29;20227;-80
2023/12/15 19:13:54;;;;;;;17.73;4.87;;;;;7.80;103337.00;;;;10055372;29;20219;-80
2023/12/15 19:18:56;;;;;;;14.77;4.90;;;;;7.70;103334.00;;;;10062326;29;20247;-78
2023/12/15 19:23:57;;;;;;;17.20;4.83;;;;;7.70;103348.00;;;;10068515;29;20228;-78
2023/12/15 19:29:00;;;;;;;14.37;5.30;;;;;7.70;103336.00;;;;10075675;29;20236;-78
2023/12/15 19:34:02;;;;;;;14.07;5.60;;;;;7.60;103347.00;;;;10066702;29;20227;-78
2023/12/15 19:39:03;;;;;;;12.57;5.43;;;;;7.60;103355.00;;;;10078068;29;21044;-78
2023/12/15 19:44:05;;;;;;;13.17;5.80;;;;;7.60;103365.00;;;;10058470;29;20230;-80
2023/12/15 19:49:07;;;;;;;13.67;5.90;;;;;7.60;103365.00;;;;10069085;29;20242;-79
2023/12/15 19:54:12;;;;;;;20.60;6.07;;;;;7.70;103358.00;;;;10073441;29;20288;-78
2023/12/15 19:59:22;;;;;;;15.00;5.30;;;;;7.60;103342.00;;;;10068795;29;20326;-80
2023/12/15 20:04:23;;;;;;;13.30;5.53;;;;;7.60;103357.00;;;;10073061;29;20327;-78
2023/12/15 20:09:26;;;;;;;18.13;5.17;;;;;7.70;103368.00;;;;10063617;29;20224;-78
2023/12/15 20:14:27;;;;;;;19.07;6.33;;;;;7.70;103370.00;;;;10064697;29;20851;-77
2023/12/15 20:19:28;;;;;;;12.57;4.90;;;;;7.70;103362.00;;;;10078244;29;20303;-78
2023/12/15 20:24:30;;;;;;;17.00;4.77;;;;;7.60;103373.00;;;;10053015;29;20235;-77
2023/12/15 20:29:31;;;;;;;17.10;5.20;;;;;7.60;103393.00;;;;10072992;29;20291;-77
2023/12/15 20:34:33;;;;;;;11.50;3.83;;;;;7.70;103400.00;;;;10051149;29;20238;-80
2023/12/15 20:39:35;;;;;;;14.20;4.03;;;;;7.70;103400.00;;;;10073586;29;20235;-80
2023/12/15 20:44:38;;;;;;;11.17;3.57;;;;;7.70;103411.00;;;;10052412;29;20231;-79
2023/12/15 20:49:42;;;;;;;11.67;3.70;;;;;7.70;103417.00;;;;10055175;29;20283;-77
2023/12/15 20:54:43;;;;;;;13.07;3.57;;;;;7.60;103413.00;;;;10051740;29;20234;-78
2023/12/15 20:59:45;;;;;;;13.20;3.87;;;;;7.60;103420.00;;;;10070270;29;20245;-79
2023/12/15 21:04:47;;;;;;;12.10;3.00;;;;;7.60;103415.00;;;;10072716;29;20302;-81
2023/12/15 21:09:48;;;;;;;14.07;3.53;;;;;7.60;103421.00;;;;10069947;29;20315;-78
2023/12/15 21:14:58;;;;;;;16.70;3.50;;;;;7.50;103418.00;;;;10051074;29;20235;-79
2023/12/15 21:20:06;;;;;;;14.70;3.50;;;;;7.50;103426.00;;;;10053661;29;20223;-78
2023/12/15 21:25:11;;;;;;;11.23;3.77;;;;;7.50;103419.00;;;;10040301;29;20239;-80
2023/12/15 21:30:13;;;;;;;10.13;3.63;;;;;7.50;103416.00;;;;10058836;29;20237;-78
2023/12/15 21:35:14;;;;;;;16.00;3.83;;;;;7.50;103419.00;;;;10053011;29;20381;-80
2023/12/15 21:40:16;;;;;;;16.57;5.27;;;;;7.40;103414.00;;;;10083080;29;20265;-77
2023/12/15 21:45:17;;;;;;;14.57;4.10;;;;;7.40;103417.00;;;;10061540;29;20243;-78
2023/12/15 21:50:19;;;;;;;9.67;3.73;;;;;7.40;103425.00;;;;10067376;29;20231;-78
2023/12/15 21:55:20;;;;;;;8.83;4.17;;;;;7.30;103424.00;;;;10079694;29;20234;-78
2023/12/15 22:00:21;;;;;;;9.30;4.27;;;;;7.30;103432.00;;;;10080227;29;20242;-78
2023/12/15 22:05:22;;;;;;;14.27;5.07;;;;;7.30;103442.00;;;;10086793;29;20310;-80
2023/12/15 22:10:24;;;;;;;20.30;5.50;;;;;7.30;103432.00;;;;10095036;29;20283;-80
2023/12/15 22:15:25;;;;;;;12.37;5.13;;;;;7.30;103437.00;;;;10065641;29;20243;-79
2023/12/15 22:20:28;;;;;;;15.47;7.13;;;;;7.30;103430.00;;;;10064002;29;20893;-79
2023/12/15 22:25:30;;;;;;;10.80;5.13;;;;;7.30;103430.00;;;;10087155;29;20230;-79
2023/12/15 22:30:31;;;;;;;11.40;5.00;;;;;7.30;103438.00;;;;10074011;29;20947;-80
2023/12/15 22:35:32;;;;;;;13.30;4.93;;;;;7.30;103427.00;;;;10102176;29;20243;-82
2023/12/15 22:40:33;;;;;;;13.80;5.83;;;;;7.30;103423.00;;;;10077667;29;20230;-82
2023/12/15 22:45:35;;;;;;;16.13;5.90;;;;;7.30;103423.00;;;;10071670;29;20236;-81
2023/12/15 22:50:36;;;;;;;11.47;5.33;;;;;7.30;103429.00;;;;10076746;29;20223;-83
2023/12/15 22:55:37;;;;;;;12.23;5.20;;;;;7.40;103429.00;;;;10076770;29;20239;-82
2023/12/15 23:00:39;;;;;;;15.03;5.50;;;;;7.40;103439.00;;;;10071334;29;20310;-83
2023/12/15 23:05:40;;;;;;;14.77;5.87;;;;;7.40;103441.00;;;;10088467;29;20240;-82
2023/12/15 23:10:41;;;;;;;10.27;5.37;;;;;7.30;103438.00;;;;10058612;29;20272;-82
2023/12/15 23:15:42;;;;;;;17.30;6.10;;;;;7.30;103437.00;;;;10059823;29;20254;-82
2023/12/15 23:20:44;;;;;;;12.77;5.50;;;;;7.30;103447.00;;;;10075348;29;20329;-83
2023/12/15 23:25:45;;;;;;;11.83;6.37;;;;;7.30;103439.00;;;;10070656;29;20271;-83
2023/12/15 23:30:46;;;;;;;11.80;5.47;;;;;7.30;103431.00;;;;10059119;29;20255;-83
2023/12/15 23:35:47;;;;;;;14.73;5.93;;;;;7.30;103441.00;;;;10087031;29;20790;-82
2023/12/15 23:40:49;;;;;;;15.70;6.10;;;;;7.40;103434.00;;;;10061328;29;20262;-84
2023/12/15 23:45:50;;;;;;;13.97;6.07;;;;;7.50;103438.00;;;;10058783;29;20239;-83
2023/12/15 23:50:51;;;;;;;13.33;5.10;;;;;7.50;103436.00;;;;10065110;29;20897;-86
2023/12/15 23:55:52;;;;;;;13.63;5.60;;;;;7.50;103424.00;;;;10082702;29;20262;-85
